Time;durP1;ratioP1;P1;durP2;ratioP2;P2;SDS_P1;SDS_P2;PMS_P1;PMS_P2;Temp;Humidity;BMP_temperature;BMP_pressure;BME280_temperature;BME280_humidity;BME280_pressure;Samples;Min_cycle;Max_cycle;Signal;HPM_P1;HPM_P2
2022/01/31 00:01:24;;;;;;;24.52;6.93;;;4.70;99.90;;;;;;5061236;28;20053;-71
2022/01/31 00:03:50;;;;;;;23.65;6.47;;;4.70;99.90;;;;;;5094130;28;20047;-71
2022/01/31 00:06:15;;;;;;;26.58;6.00;;;4.70;99.90;;;;;;5055598;28;20075;-71
2022/01/31 00:08:42;;;;;;;27.85;6.25;;;4.70;99.90;;;;;;5082007;28;20085;-71
2022/01/31 00:11:08;;;;;;;27.60;7.07;;;4.70;99.90;;;;;;5094903;28;20066;-71
2022/01/31 00:13:41;;;;;;;28.10;7.28;;;4.70;99.90;;;;;;5060595;28;20041;-72
2022/01/31 00:16:09;;;;;;;30.92;7.07;;;4.70;99.90;;;;;;5096655;28;20098;-71
2022/01/31 00:18:35;;;;;;;26.90;6.85;;;4.70;99.90;;;;;;5064098;28;20044;-71
2022/01/31 00:21:01;;;;;;;25.35;6.97;;;4.80;99.90;;;;;;5094367;28;20134;-71
2022/01/31 00:23:27;;;;;;;28.17;7.50;;;4.80;99.90;;;;;;5061190;28;20043;-71
2022/01/31 00:25:52;;;;;;;25.50;7.25;;;4.80;99.90;;;;;;5065779;28;20045;-71
2022/01/31 00:28:18;;;;;;;25.27;7.10;;;4.80;99.90;;;;;;5065276;28;20212;-71
2022/01/31 00:30:45;;;;;;;21.48;6.72;;;4.80;99.90;;;;;;5062320;28;20135;-71
2022/01/31 00:33:10;;;;;;;24.77;7.47;;;4.80;99.90;;;;;;5054629;28;20527;-72
2022/01/31 00:35:36;;;;;;;22.48;6.60;;;4.80;99.90;;;;;;5062873;28;20068;-71
2022/01/31 00:38:02;;;;;;;25.17;6.82;;;4.80;99.90;;;;;;5054818;28;20510;-71
2022/01/31 00:40:27;;;;;;;21.48;6.50;;;4.90;99.90;;;;;;5064673;28;20048;-72
2022/01/31 00:42:53;;;;;;;23.27;6.80;;;4.90;99.90;;;;;;5065514;28;20083;-71
2022/01/31 00:45:30;;;;;;;23.52;7.22;;;4.80;99.90;;;;;;5069217;28;20087;-71
2022/01/31 00:48:06;;;;;;;22.60;7.10;;;4.80;99.90;;;;;;5059871;28;20068;-72
2022/01/31 00:50:39;;;;;;;26.45;7.55;;;4.80;99.90;;;;;;5045965;28;20049;-71
2022/01/31 00:53:05;;;;;;;22.70;6.93;;;4.80;99.90;;;;;;5083549;28;20060;-71
2022/01/31 00:55:30;;;;;;;22.90;7.18;;;4.80;99.90;;;;;;5058837;28;20040;-72
2022/01/31 00:57:56;;;;;;;22.63;7.32;;;4.80;99.90;;;;;;5087287;28;20120;-71
2022/01/31 01:00:22;;;;;;;24.77;7.43;;;4.90;99.90;;;;;;5062736;28;20090;-71
2022/01/31 01:02:47;;;;;;;23.80;7.10;;;4.90;99.90;;;;;;5066440;28;20047;-72
2022/01/31 01:05:14;;;;;;;23.02;7.43;;;4.90;99.90;;;;;;5064174;28;20113;-71
2022/01/31 01:07:40;;;;;;;22.30;7.00;;;4.90;99.90;;;;;;5096129;28;20040;-71
2022/01/31 01:10:06;;;;;;;24.10;8.18;;;4.80;99.90;;;;;;5057401;28;20260;-72
2022/01/31 01:12:32;;;;;;;21.98;7.55;;;4.90;99.90;;;;;;5090127;28;20131;-72
2022/01/31 01:14:58;;;;;;;19.15;7.18;;;4.90;99.90;;;;;;5095946;28;20128;-72
2022/01/31 01:17:23;;;;;;;23.80;8.18;;;4.90;99.90;;;;;;5061523;28;20070;-72
2022/01/31 01:19:49;;;;;;;23.92;7.60;;;4.90;99.90;;;;;;5066700;28;20056;-71
2022/01/31 01:22:15;;;;;;;22.45;7.70;;;4.90;99.90;;;;;;5063281;28;20043;-71
2022/01/31 01:24:40;;;;;;;20.60;7.78;;;4.90;99.90;;;;;;5094563;28;20036;-72
2022/01/31 01:27:08;;;;;;;22.83;7.95;;;4.90;99.90;;;;;;5091131;28;20152;-72
2022/01/31 01:29:34;;;;;;;17.77;8.00;;;4.90;99.90;;;;;;5048943;28;20049;-71
2022/01/31 01:32:00;;;;;;;24.90;8.63;;;4.90;99.90;;;;;;5076789;28;20090;-72
2022/01/31 01:34:26;;;;;;;19.95;9.02;;;4.90;99.90;;;;;;5096931;28;20047;-72
2022/01/31 01:36:53;;;;;;;23.42;8.88;;;4.90;99.90;;;;;;5078744;28;20075;-71
2022/01/31 01:39:19;;;;;;;22.80;8.47;;;4.90;99.90;;;;;;5064478;28;20174;-72
2022/01/31 01:41:45;;;;;;;22.83;9.25;;;4.90;99.90;;;;;;5066174;28;20307;-72
2022/01/31 01:44:11;;;;;;;23.40;9.68;;;4.90;99.90;;;;;;5080117;28;21361;-72
2022/01/31 01:46:36;;;;;;;25.67;10.23;;;4.90;99.90;;;;;;5067387;28;20045;-71
2022/01/31 01:49:02;;;;;;;23.05;11.00;;;4.90;99.90;;;;;;5100410;28;20115;-71
2022/01/31 01:51:28;;;;;;;25.90;11.40;;;4.80;99.90;;;;;;5067217;28;20060;-71
2022/01/31 01:53:54;;;;;;;22.50;10.93;;;4.80;99.90;;;;;;5065186;28;20143;-71
2022/01/31 01:56:19;;;;;;;25.13;12.25;;;4.80;99.90;;;;;;5052506;28;20136;-71
2022/01/31 01:58:48;;;;;;;27.40;13.43;;;4.80;99.90;;;;;;5066554;28;20048;-72
2022/01/31 02:01:13;;;;;;;25.25;13.30;;;4.70;99.90;;;;;;5067064;28;20041;-72
2022/01/31 02:03:40;;;;;;;28.73;14.48;;;4.70;99.90;;;;;;5065576;28;20385;-72
2022/01/31 02:06:07;;;;;;;25.70;14.17;;;4.60;99.90;;;;;;5060889;28;20044;-71
2022/01/31 02:08:43;;;;;;;28.55;14.50;;;4.60;99.90;;;;;;5065104;28;21067;-71
2022/01/31 02:11:11;;;;;;;22.30;13.88;;;4.50;99.90;;;;;;5052908;28;20083;-71
2022/01/31 02:13:38;;;;;;;24.83;14.68;;;4.50;99.90;;;;;;5063277;28;20051;-73
2022/01/31 02:16:05;;;;;;;24.52;14.32;;;4.50;99.90;;;;;;5078923;28;20048;-72
2022/01/31 02:18:31;;;;;;;22.85;15.32;;;4.40;99.90;;;;;;5062129;28;20056;-71
2022/01/31 02:20:57;;;;;;;23.90;13.98;;;4.40;99.90;;;;;;5066393;28;20056;-72
2022/01/31 02:23:23;;;;;;;25.67;15.00;;;4.30;99.90;;;;;;5056020;28;20056;-72
2022/01/31 02:26:04;;;;;;;26.58;15.30;;;4.30;99.90;;;;;;5080196;28;20032;-72
2022/01/31 02:28:32;;;;;;;25.05;15.50;;;4.30;99.90;;;;;;5063730;28;20048;-72
2022/01/31 02:30:58;;;;;;;23.33;15.07;;;4.30;99.90;;;;;;5058452;28;20048;-72
2022/01/31 02:33:24;;;;;;;23.10;15.18;;;4.30;99.90;;;;;;5062265;28;20044;-72
2022/01/31 02:35:53;;;;;;;26.38;15.30;;;4.30;99.90;;;;;;5066778;28;20097;-72
2022/01/31 02:38:19;;;;;;;27.55;15.57;;;4.30;99.90;;;;;;5071869;28;20049;-72
2022/01/31 02:40:45;;;;;;;24.13;16.05;;;4.20;99.90;;;;;;5063277;28;20476;-72
2022/01/31 02:43:17;;;;;;;26.20;15.40;;;4.30;99.90;;;;;;5062483;28;20080;-71
2022/01/31 02:45:43;;;;;;;23.77;15.50;;;4.20;99.90;;;;;;5063998;28;20136;-72
2022/01/31 02:48:09;;;;;;;27.83;15.52;;;4.20;99.90;;;;;;5095081;28;20160;-71
2022/01/31 02:50:34;;;;;;;25.83;15.10;;;4.20;99.90;;;;;;5060441;28;20046;-72
2022/01/31 02:53:11;;;;;;;27.55;16.38;;;4.20;99.90;;;;;;5064177;28;20580;-72
2022/01/31 02:55:39;;;;;;;25.15;15.60;;;4.20;99.90;;;;;;5058058;28;20047;-72
2022/01/31 02:58:05;;;;;;;24.42;15.93;;;4.20;99.90;;;;;;5096703;28;20483;-72
2022/01/31 03:00:30;;;;;;;24.80;15.68;;;4.20;99.90;;;;;;5088583;28;20122;-72
2022/01/31 03:02:56;;;;;;;22.92;15.63;;;4.20;99.90;;;;;;5077130;28;20543;-71
2022/01/31 03:05:21;;;;;;;20.27;15.48;;;4.30;99.90;;;;;;5061389;28;20045;-71
2022/01/31 03:07:47;;;;;;;24.25;14.48;;;4.20;99.90;;;;;;5079616;28;20234;-72
2022/01/31 03:10:12;;;;;;;21.85;14.70;;;4.20;99.90;;;;;;5071167;28;20037;-72
2022/01/31 03:12:38;;;;;;;20.45;14.43;;;4.20;99.90;;;;;;5060085;28;20449;-72
2022/01/31 03:15:04;;;;;;;20.33;14.07;;;4.20;99.90;;;;;;5055787;28;20063;-73
2022/01/31 03:17:30;;;;;;;21.65;13.63;;;4.20;99.90;;;;;;5065655;28;20056;-71
2022/01/31 03:19:55;;;;;;;16.23;11.73;;;4.20;99.90;;;;;;5062826;28;20514;-72
2022/01/31 03:22:23;;;;;;;14.35;10.57;;;4.20;99.90;;;;;;5060588;28;20205;-71
2022/01/31 03:24:48;;;;;;;;;;;4.20;99.90;;;;;;5056224;28;20040;-71
2022/01/31 03:27:15;;;;;;;15.20;11.73;;;4.20;99.90;;;;;;5075332;28;20287;-72
2022/01/31 03:29:41;;;;;;;13.20;10.40;;;4.10;99.90;;;;;;5051364;28;20686;-72
2022/01/31 03:32:07;;;;;;;12.32;10.95;;;4.10;99.90;;;;;;5057922;28;20310;-72
2022/01/31 03:34:32;;;;;;;12.98;11.25;;;4.10;99.90;;;;;;5062778;28;20508;-71
2022/01/31 03:36:58;;;;;;;16.10;11.25;;;4.10;99.90;;;;;;5059926;28;20748;-72
2022/01/31 03:39:24;;;;;;;15.90;11.73;;;4.10;99.90;;;;;;5072319;28;20139;-72
2022/01/31 03:41:49;;;;;;;13.23;11.70;;;4.10;99.90;;;;;;5064380;28;20488;-71
2022/01/31 03:44:15;;;;;;;14.43;12.15;;;4.10;99.90;;;;;;5079268;28;20075;-71
2022/01/31 03:46:40;;;;;;;13.20;11.25;;;4.10;99.90;;;;;;5067208;28;20131;-70
2022/01/31 03:49:06;;;;;;;13.73;12.30;;;4.10;99.90;;;;;;5060272;28;20044;-72
2022/01/31 03:51:32;;;;;;;14.90;11.88;;;4.10;99.90;;;;;;5063258;28;20048;-71
2022/01/31 03:53:57;;;;;;;12.63;10.85;;;4.10;99.90;;;;;;5054076;28;20054;-72
2022/01/31 03:56:23;;;;;;;12.75;11.23;;;4.10;99.90;;;;;;5060967;28;20041;-72
2022/01/31 03:58:48;;;;;;;12.27;10.77;;;4.20;99.90;;;;;;5057655;28;20480;-71
2022/01/31 04:01:14;;;;;;;12.85;11.55;;;4.20;99.90;;;;;;5064259;28;20070;-71
2022/01/31 04:03:40;;;;;;;13.52;11.38;;;4.20;99.90;;;;;;5053269;28;20651;-72
2022/01/31 04:06:06;;;;;;;12.85;10.77;;;4.30;99.90;;;;;;5079140;28;20056;-71
2022/01/31 04:08:31;;;;;;;14.35;12.30;;;4.30;99.90;;;;;;5064888;28;20044;-71
2022/01/31 04:10:57;;;;;;;17.55;13.45;;;4.30;99.90;;;;;;5061006;28;20179;-72
2022/01/31 04:13:26;;;;;;;15.23;12.25;;;4.30;99.90;;;;;;5061489;28;20044;-72
2022/01/31 04:15:51;;;;;;;14.93;13.27;;;4.30;99.90;;;;;;5065387;28;20490;-71
2022/01/31 04:18:17;;;;;;;16.88;12.77;;;4.30;99.90;;;;;;5063195;28;20052;-72
2022/01/31 04:20:43;;;;;;;17.33;12.05;;;4.30;99.90;;;;;;5071800;28;20574;-72
2022/01/31 04:23:12;;;;;;;18.75;12.45;;;4.40;99.90;;;;;;5059837;28;20087;-72
2022/01/31 04:28:21;;;;;;;20.52;14.05;;;4.40;99.90;;;;;;5055043;28;20139;-71
2022/01/31 04:30:56;;;;;;;20.35;13.85;;;4.50;99.90;;;;;;5057982;28;20032;-71
2022/01/31 04:33:23;;;;;;;23.90;13.95;;;4.50;99.90;;;;;;5066724;28;20523;-72
2022/01/31 04:35:49;;;;;;;16.83;13.02;;;4.50;99.90;;;;;;5060860;28;20040;-71
2022/01/31 04:38:15;;;;;;;29.00;14.10;;;4.60;99.90;;;;;;5065441;28;20113;-71
2022/01/31 04:40:40;;;;;;;21.48;12.73;;;4.60;99.90;;;;;;5061860;28;20047;-72
2022/01/31 04:43:06;;;;;;;21.00;11.88;;;4.60;99.90;;;;;;5067795;28;20068;-71
2022/01/31 04:45:31;;;;;;;25.05;10.38;;;4.70;99.90;;;;;;5061178;28;20037;-71
2022/01/31 04:47:57;;;;;;;18.13;8.52;;;4.70;99.90;;;;;;5064248;28;20148;-72
2022/01/31 04:50:23;;;;;;;25.80;7.35;;;4.80;99.90;;;;;;5086659;28;20527;-71
2022/01/31 04:52:48;;;;;;;20.20;6.45;;;4.90;99.90;;;;;;5070158;28;20044;-71
2022/01/31 04:55:14;;;;;;;20.65;6.03;;;5.00;99.90;;;;;;5085704;28;20044;-72
2022/01/31 04:57:40;;;;;;;31.63;6.68;;;5.00;99.90;;;;;;5074337;28;20045;-72
2022/01/31 05:00:08;;;;;;;26.38;5.72;;;5.10;99.90;;;;;;5068898;28;20048;-72
2022/01/31 05:02:34;;;;;;;25.48;4.95;;;5.10;99.90;;;;;;5058196;28;20064;-72
2022/01/31 05:05:01;;;;;;;19.65;4.53;;;5.20;99.90;;;;;;5057677;28;20055;-71
2022/01/31 05:07:26;;;;;;;24.35;4.75;;;5.30;99.90;;;;;;5056815;28;20064;-71
2022/01/31 05:09:52;;;;;;;25.10;4.47;;;5.30;99.90;;;;;;5082400;28;20040;-72
2022/01/31 05:12:18;;;;;;;21.95;4.35;;;5.40;99.90;;;;;;5052783;28;20533;-71
2022/01/31 05:14:43;;;;;;;24.98;3.90;;;5.50;99.90;;;;;;5067743;28;20059;-71
2022/01/31 05:17:09;;;;;;;19.30;4.10;;;5.50;99.90;;;;;;5101948;28;20052;-71
2022/01/31 05:19:34;;;;;;;22.75;4.32;;;5.60;99.90;;;;;;5070648;28;20056;-72
2022/01/31 05:22:00;;;;;;;18.15;3.90;;;5.60;99.90;;;;;;5052817;28;20040;-72
2022/01/31 05:24:26;;;;;;;20.90;4.18;;;5.60;99.90;;;;;;5082388;28;20055;-72
2022/01/31 05:26:53;;;;;;;26.92;4.40;;;5.60;99.90;;;;;;5067475;28;20066;-72
2022/01/31 05:29:20;;;;;;;23.60;4.88;;;5.60;99.90;;;;;;5090143;28;20048;-71
2022/01/31 05:31:46;;;;;;;25.33;4.78;;;5.60;99.90;;;;;;5097132;28;20649;-72
2022/01/31 05:34:12;;;;;;;30.30;4.97;;;5.60;99.90;;;;;;5053111;28;20052;-72
2022/01/31 05:36:39;;;;;;;28.65;5.60;;;5.60;99.90;;;;;;5083398;28;20040;-71
2022/01/31 05:39:04;;;;;;;23.40;4.85;;;5.60;99.90;;;;;;5072021;28;20044;-72
2022/01/31 05:41:30;;;;;;;22.52;4.53;;;5.60;99.90;;;;;;5061445;28;20236;-71
2022/01/31 05:43:56;;;;;;;26.40;4.93;;;5.60;99.90;;;;;;5093843;28;20082;-71
2022/01/31 05:46:22;;;;;;;25.70;4.68;;;5.60;99.90;;;;;;5063442;28;20049;-72
2022/01/31 05:48:47;;;;;;;27.38;4.90;;;5.60;99.90;;;;;;5057100;28;20107;-72
2022/01/31 05:51:18;;;;;;;28.20;5.30;;;5.60;99.90;;;;;;5080043;28;20044;-72
2022/01/31 05:53:44;;;;;;;25.13;4.55;;;5.60;99.90;;;;;;5066886;28;20051;-72
2022/01/31 05:56:11;;;;;;;28.90;5.00;;;5.60;99.90;;;;;;5067221;28;20102;-72
2022/01/31 05:58:37;;;;;;;21.92;4.30;;;5.60;99.90;;;;;;5052729;28;20083;-72
2022/01/31 06:01:04;;;;;;;25.20;4.13;;;5.60;99.90;;;;;;5089799;28;20451;-72
2022/01/31 06:03:30;;;;;;;7.87;2.03;;;5.50;99.90;;;;;;5048106;28;20480;-71
2022/01/31 06:05:55;;;;;;;8.30;1.60;;;5.50;99.90;;;;;;5068328;28;20302;-72
2022/01/31 06:08:21;;;;;;;11.38;1.55;;;5.40;99.90;;;;;;5073940;28;20048;-72
2022/01/31 06:10:48;;;;;;;6.85;1.30;;;5.30;99.90;;;;;;5060407;28;20124;-72
2022/01/31 06:13:23;;;;;;;7.15;1.60;;;5.20;99.90;;;;;;5055605;28;20048;-71
2022/01/31 06:15:49;;;;;;;8.38;1.50;;;5.20;99.90;;;;;;5067658;28;20055;-71
2022/01/31 06:18:14;;;;;;;7.35;1.35;;;5.10;99.90;;;;;;5057902;28;20169;-71
2022/01/31 06:20:41;;;;;;;7.05;1.83;;;5.10;99.90;;;;;;5071476;28;20617;-72
2022/01/31 06:23:06;;;;;;;8.32;1.95;;;5.00;99.90;;;;;;5051975;28;20084;-72
2022/01/31 06:25:34;;;;;;;7.18;1.40;;;5.00;99.90;;;;;;5078523;28;20110;-72
2022/01/31 06:27:59;;;;;;;4.88;1.08;;;5.00;99.90;;;;;;5062999;28;20128;-72
2022/01/31 06:30:26;;;;;;;5.18;1.15;;;4.90;99.90;;;;;;5063502;28;20119;-72
2022/01/31 06:32:53;;;;;;;8.73;1.50;;;5.00;99.90;;;;;;5078799;28;20146;-72
2022/01/31 06:35:18;;;;;;;6.35;1.55;;;4.90;99.90;;;;;;5056822;28;20503;-72
2022/01/31 06:37:44;;;;;;;6.88;1.65;;;4.90;99.90;;;;;;5071767;28;20059;-72
2022/01/31 06:40:10;;;;;;;9.25;1.67;;;4.90;99.90;;;;;;5098019;28;20147;-71
2022/01/31 06:42:36;;;;;;;7.65;1.55;;;4.90;99.90;;;;;;5065029;28;20090;-72
2022/01/31 06:45:03;;;;;;;10.45;2.13;;;4.90;99.90;;;;;;5073809;28;20036;-72
2022/01/31 06:47:29;;;;;;;7.80;1.65;;;4.90;99.90;;;;;;5062076;28;20564;-72
2022/01/31 06:49:55;;;;;;;14.88;2.05;;;4.90;99.90;;;;;;5067311;28;20054;-72
2022/01/31 06:52:21;;;;;;;12.65;2.60;;;4.90;99.90;;;;;;5064375;28;20087;-71
2022/01/31 06:54:50;;;;;;;9.82;1.95;;;4.90;99.90;;;;;;5058512;28;20123;-72
2022/01/31 06:57:22;;;;;;;12.57;2.42;;;4.90;99.90;;;;;;5061332;28;20044;-72
2022/01/31 06:59:48;;;;;;;13.88;2.40;;;4.90;99.90;;;;;;5065781;28;20052;-72
2022/01/31 07:02:14;;;;;;;13.50;2.55;;;4.90;99.90;;;;;;5061132;28;20036;-72
2022/01/31 07:04:39;;;;;;;14.65;2.60;;;4.90;99.90;;;;;;5083732;28;20098;-72
2022/01/31 07:07:05;;;;;;;12.45;2.60;;;4.90;99.90;;;;;;5098397;28;20135;-71
2022/01/31 07:09:33;;;;;;;14.70;2.22;;;4.90;99.90;;;;;;5051602;28;20464;-72
2022/01/31 07:12:00;;;;;;;15.77;2.53;;;5.00;99.90;;;;;;5062238;28;20052;-72
2022/01/31 07:14:32;;;;;;;12.55;3.00;;;5.00;99.90;;;;;;5078112;28;20060;-72
2022/01/31 07:17:00;;;;;;;14.80;2.95;;;5.00;99.90;;;;;;5055512;28;20123;-70
2022/01/31 07:19:28;;;;;;;17.90;2.90;;;5.00;99.90;;;;;;5088887;28;20059;-73
2022/01/31 07:21:54;;;;;;;12.45;2.72;;;5.00;99.90;;;;;;5058868;28;20059;-73
2022/01/31 07:26:49;;;;;;;16.75;3.30;;;5.00;99.90;;;;;;5056240;28;20053;-73
2022/01/31 07:29:15;;;;;;;16.90;2.67;;;5.00;99.90;;;;;;5057433;28;20037;-72
2022/01/31 07:31:42;;;;;;;15.85;3.22;;;5.10;99.90;;;;;;5091311;28;20048;-72
2022/01/31 07:34:08;;;;;;;20.40;3.95;;;5.10;99.90;;;;;;5066800;28;20047;-72
2022/01/31 07:36:34;;;;;;;18.23;3.03;;;5.10;99.90;;;;;;5061636;28;20562;-72
2022/01/31 07:39:00;;;;;;;19.85;3.00;;;5.10;99.90;;;;;;5063396;28;20072;-72
2022/01/31 07:41:26;;;;;;;14.25;4.32;;;5.10;99.90;;;;;;5046322;28;20115;-72
2022/01/31 07:43:51;;;;;;;15.50;3.13;;;5.20;99.90;;;;;;5045473;28;20396;-72
2022/01/31 07:46:17;;;;;;;11.43;2.63;;;5.20;99.90;;;;;;5053124;28;20101;-71
2022/01/31 07:48:43;;;;;;;10.52;2.00;;;5.20;99.90;;;;;;5077215;28;20045;-72
2022/01/31 07:51:09;;;;;;;8.80;2.03;;;5.20;99.90;;;;;;5083720;28;20032;-73
2022/01/31 07:53:38;;;;;;;6.78;1.88;;;5.20;99.90;;;;;;5061401;28;20044;-72
2022/01/31 07:56:07;;;;;;;5.75;1.90;;;5.20;99.90;;;;;;5065144;28;20101;-72
2022/01/31 07:58:34;;;;;;;7.63;1.73;;;5.20;99.90;;;;;;5064344;28;20044;-72
2022/01/31 08:01:00;;;;;;;10.90;2.00;;;5.20;99.90;;;;;;5070070;28;20053;-72
2022/01/31 08:03:25;;;;;;;7.57;2.00;;;5.20;99.90;;;;;;5059003;28;20036;-72
2022/01/31 08:05:51;;;;;;;9.63;1.90;;;5.20;99.90;;;;;;5051040;28;20037;-72
2022/01/31 08:08:16;;;;;;;7.03;1.52;;;5.20;99.90;;;;;;5062585;28;20447;-72
2022/01/31 08:10:43;;;;;;;9.40;2.20;;;5.20;99.90;;;;;;5062051;28;20045;-72
2022/01/31 08:13:09;;;;;;;8.60;1.95;;;5.20;99.90;;;;;;5066043;28;20060;-73
2022/01/31 08:15:45;;;;;;;11.05;2.13;;;5.20;99.90;;;;;;5063789;28;20052;-72
2022/01/31 08:18:12;;;;;;;13.18;2.45;;;5.20;99.90;;;;;;5059100;28;20056;-72
2022/01/31 08:20:37;;;;;;;12.70;2.53;;;5.20;99.90;;;;;;5062725;28;20161;-72
2022/01/31 08:23:03;;;;;;;7.57;1.60;;;5.20;99.90;;;;;;5065432;28;20499;-72
2022/01/31 08:25:29;;;;;;;7.10;1.70;;;5.20;99.90;;;;;;5063582;28;20052;-72
2022/01/31 08:28:00;;;;;;;10.25;2.33;;;5.20;99.90;;;;;;5064123;28;20417;-72
2022/01/31 08:30:36;;;;;;;9.80;1.80;;;5.20;99.90;;;;;;5063196;28;20037;-72
2022/01/31 08:33:12;;;;;;;13.20;2.15;;;5.20;99.90;;;;;;5052699;28;20045;-72
2022/01/31 08:35:48;;;;;;;13.75;2.30;;;5.20;99.90;;;;;;5047549;28;20049;-72
2022/01/31 08:38:16;;;;;;;11.45;2.25;;;5.20;99.90;;;;;;5060847;28;20059;-73
2022/01/31 08:40:43;;;;;;;12.55;2.08;;;5.20;99.90;;;;;;5055708;28;20044;-72
2022/01/31 08:43:08;;;;;;;12.27;2.87;;;5.20;99.90;;;;;;5067636;28;20040;-72
2022/01/31 08:45:35;;;;;;;8.98;2.42;;;5.20;99.90;;;;;;5061460;28;20874;-70
2022/01/31 08:48:05;;;;;;;12.50;2.58;;;5.30;99.90;;;;;;5091006;28;20106;-70
2022/01/31 08:50:31;;;;;;;12.60;2.65;;;5.30;99.90;;;;;;5065056;28;20055;-71
2022/01/31 08:52:57;;;;;;;12.40;2.90;;;5.30;99.90;;;;;;5056114;28;20048;-70
2022/01/31 08:55:23;;;;;;;13.40;3.13;;;5.30;99.90;;;;;;5066369;28;20136;-70
2022/01/31 08:57:53;;;;;;;16.35;3.83;;;5.40;99.90;;;;;;5068235;28;20491;-71
2022/01/31 09:00:19;;;;;;;13.57;3.00;;;5.40;99.90;;;;;;5066871;28;20043;-71
2022/01/31 09:02:59;;;;;;;19.02;3.00;;;5.50;99.90;;;;;;5100378;28;20062;-71
2022/01/31 09:05:25;;;;;;;13.88;3.33;;;5.50;99.90;;;;;;5100524;28;20052;-71
2022/01/31 09:07:50;;;;;;;12.57;2.55;;;5.50;99.90;;;;;;5067499;28;20052;-71
2022/01/31 09:10:18;;;;;;;12.98;3.00;;;5.60;99.90;;;;;;5066848;28;20072;-71
2022/01/31 09:12:44;;;;;;;15.90;2.88;;;5.60;99.90;;;;;;5067205;28;20040;-70
2022/01/31 09:15:12;;;;;;;14.65;2.97;;;5.60;99.90;;;;;;5067385;28;20086;-70
2022/01/31 09:17:39;;;;;;;14.15;3.33;;;5.60;99.90;;;;;;5061553;28;20071;-72
2022/01/31 09:20:05;;;;;;;9.90;2.33;;;5.70;99.90;;;;;;5070450;28;20082;-71
2022/01/31 09:22:31;;;;;;;14.03;2.80;;;5.70;99.90;;;;;;5068267;28;20056;-72
2022/01/31 09:24:56;;;;;;;15.60;2.80;;;5.80;99.90;;;;;;5069065;28;20098;-72
2022/01/31 09:27:22;;;;;;;13.48;2.65;;;5.80;99.90;;;;;;5049415;28;20041;-72
2022/01/31 09:29:48;;;;;;;11.40;2.67;;;5.90;99.90;;;;;;5080800;28;20047;-71
2022/01/31 09:32:15;;;;;;;14.82;3.40;;;5.90;99.90;;;;;;5070453;28;20139;-70
2022/01/31 09:34:41;;;;;;;12.23;2.83;;;5.90;99.90;;;;;;5069346;28;20901;-71
2022/01/31 09:37:06;;;;;;;10.70;2.70;;;6.00;99.90;;;;;;5085709;28;20044;-70
2022/01/31 09:39:34;;;;;;;15.07;3.08;;;6.00;99.90;;;;;;5065920;28;20067;-71
2022/01/31 09:42:00;;;;;;;15.05;2.55;;;6.00;99.90;;;;;;5068735;28;20058;-71
2022/01/31 09:49:17;;;;;;;8.95;2.10;;;6.10;99.90;;;;;;5090322;28;20064;-71
2022/01/31 09:51:43;;;;;;;9.48;2.03;;;6.10;99.90;;;;;;5070679;28;20484;-72
2022/01/31 09:54:10;;;;;;;9.45;2.10;;;6.20;99.90;;;;;;5069023;28;20040;-71
2022/01/31 09:56:42;;;;;;;9.48;2.38;;;6.20;99.90;;;;;;5068047;28;20044;-71
2022/01/31 09:59:10;;;;;;;11.02;2.28;;;6.30;99.90;;;;;;5070757;28;20500;-70
2022/01/31 10:01:41;;;;;;;12.65;2.13;;;6.30;99.90;;;;;;5070965;28;20514;-69
2022/01/31 10:04:18;;;;;;;11.40;2.45;;;6.30;99.90;;;;;;5064049;28;20044;-69
2022/01/31 10:06:46;;;;;;;9.75;2.20;;;6.20;99.90;;;;;;5069826;28;20049;-70
2022/01/31 10:09:13;;;;;;;11.93;2.28;;;6.30;99.90;;;;;;5069616;28;20391;-69
2022/01/31 10:11:51;;;;;;;9.32;2.10;;;6.30;99.90;;;;;;5104524;28;20054;-70
2022/01/31 10:17:33;;;;;;;9.07;1.65;;;6.40;99.90;;;;;;5096134;28;20416;-70
2022/01/31 10:20:03;;;;;;;10.25;2.33;;;6.40;99.90;;;;;;5063501;28;20479;-70
2022/01/31 10:22:32;;;;;;;9.82;1.85;;;6.50;99.90;;;;;;5068555;28;20045;-70
2022/01/31 10:25:00;;;;;;;9.05;2.22;;;6.50;99.90;;;;;;5068757;28;20470;-70
2022/01/31 10:27:29;;;;;;;9.32;2.00;;;6.60;99.90;;;;;;5068136;28;20059;-70
2022/01/31 10:30:04;;;;;;;11.23;2.25;;;6.60;99.90;;;;;;5082445;28;20045;-70
2022/01/31 10:32:35;;;;;;;9.75;2.00;;;6.60;99.90;;;;;;5063797;28;20045;-70
2022/01/31 10:35:06;;;;;;;12.13;2.05;;;6.60;99.90;;;;;;5059429;28;20094;-70
2022/01/31 10:37:34;;;;;;;10.18;2.15;;;6.60;99.90;;;;;;5064111;28;20056;-70
2022/01/31 10:56:48;;;;;;;12.63;3.42;;;6.50;99.90;;;;;;5067396;28;20097;-70
2022/01/31 10:59:32;;;;;;;12.00;2.95;;;6.50;99.90;;;;;;5069441;28;20049;-71
2022/01/31 11:01:59;;;;;;;12.63;2.45;;;6.60;99.90;;;;;;5098982;28;20173;-72
2022/01/31 11:04:37;;;;;;;10.93;2.70;;;6.70;99.90;;;;;;5066195;28;20116;-71
2022/01/31 11:07:08;;;;;;;9.55;1.90;;;6.80;99.90;;;;;;5066950;28;20044;-72
2022/01/31 11:09:34;;;;;;;10.20;1.80;;;6.90;99.90;;;;;;5063448;28;20040;-74
2022/01/31 11:12:01;;;;;;;8.25;1.63;;;7.00;99.90;;;;;;5068333;28;20052;-72
2022/01/31 11:14:27;;;;;;;11.45;1.60;;;7.00;99.90;;;;;;5064390;28;20037;-74
2022/01/31 11:16:55;;;;;;;11.95;1.60;;;7.10;99.90;;;;;;5058066;28;20079;-74
2022/01/31 11:19:29;;;;;;;9.20;1.77;;;7.10;99.90;;;;;;5081202;28;20053;-74
2022/01/31 11:22:01;;;;;;;13.40;2.30;;;7.20;99.90;;;;;;5078030;28;20047;-73
2022/01/31 11:24:31;;;;;;;11.60;2.13;;;7.10;99.90;;;;;;5067320;28;20052;-73
2022/01/31 11:27:08;;;;;;;12.20;2.22;;;7.10;99.90;;;;;;5066243;28;20523;-72
2022/01/31 11:29:37;;;;;;;11.52;2.22;;;7.10;99.90;;;;;;5068002;28;20543;-72
2022/01/31 11:32:04;;;;;;;10.48;2.35;;;7.00;99.90;;;;;;5070539;28;20107;-74
2022/01/31 11:34:31;;;;;;;10.52;2.28;;;7.00;99.90;;;;;;5085315;28;20052;-73
2022/01/31 11:36:57;;;;;;;13.20;2.40;;;7.00;99.90;;;;;;5083422;28;20043;-72
2022/01/31 11:39:23;;;;;;;9.55;1.92;;;7.00;99.90;;;;;;5067356;28;20770;-73
2022/01/31 11:41:55;;;;;;;13.98;2.10;;;7.00;99.90;;;;;;5066636;28;20037;-72
2022/01/31 11:44:58;;;;;;;13.75;2.13;;;7.00;99.90;;;;;;5068381;28;20044;-72
2022/01/31 11:47:27;;;;;;;12.85;1.80;;;7.00;99.90;;;;;;5058440;28;20053;-73
2022/01/31 11:49:57;;;;;;;8.00;1.90;;;7.00;99.90;;;;;;5086936;28;20130;-73
2022/01/31 11:52:25;;;;;;;11.27;1.67;;;7.10;99.90;;;;;;5076237;28;20079;-72
2022/01/31 11:54:54;;;;;;;10.85;2.20;;;7.20;99.90;;;;;;5101117;28;20046;-72
2022/01/31 11:57:22;;;;;;;8.15;1.80;;;7.20;99.90;;;;;;5066202;28;20048;-73
2022/01/31 11:59:57;;;;;;;11.75;2.15;;;7.30;99.90;;;;;;5061817;28;20044;-71
2022/01/31 12:02:24;;;;;;;11.35;1.83;;;7.30;99.90;;;;;;5056225;28;20045;-71
2022/01/31 12:04:51;;;;;;;;;;;7.40;99.90;;;;;;5081084;28;20059;-71
2022/01/31 12:07:40;;;;;;;11.43;2.10;;;7.50;99.90;;;;;;5064319;28;19927;-71
2022/01/31 12:10:10;;;;;;;12.00;1.90;;;7.50;99.90;;;;;;5063667;28;20063;-71
2022/01/31 12:12:52;;;;;;;11.32;2.00;;;7.50;99.90;;;;;;5066653;28;20052;-71
2022/01/31 12:23:39;;;;;;;10.98;2.00;;;7.70;99.90;;;;;;5078646;28;20492;-70
2022/01/31 12:26:28;;;;;;;13.43;2.45;;;7.70;99.90;;;;;;5061544;28;20047;-72
2022/01/31 12:28:56;;;;;;;10.77;2.13;;;7.80;99.90;;;;;;5064563;28;20044;-72
2022/01/31 12:31:29;;;;;;;10.48;1.95;;;7.80;99.90;;;;;;5064546;28;20592;-72
2022/01/31 12:33:55;;;;;;;9.50;1.67;;;7.80;99.90;;;;;;5094057;28;20098;-73
2022/01/31 12:36:36;;;;;;;14.60;2.00;;;7.80;99.90;;;;;;5057091;28;20396;-72
2022/01/31 12:39:28;;;;;;;11.73;2.20;;;7.80;99.90;;;;;;5079067;28;20052;-72
2022/01/31 12:41:59;;;;;;;11.25;2.10;;;7.80;99.90;;;;;;5055629;28;20045;-72
2022/01/31 12:44:31;;;;;;;10.93;2.28;;;7.80;99.90;;;;;;5081272;28;20213;-73
2022/01/31 12:47:19;;;;;;;11.02;2.17;;;7.90;99.90;;;;;;5073808;28;20044;-73
2022/01/31 12:50:05;;;;;;;15.60;2.70;;;8.00;99.90;;;;;;5059651;28;20450;-72
2022/01/31 12:52:34;;;;;;;12.30;2.20;;;8.00;99.90;;;;;;5068020;28;20476;-73
2022/01/31 12:55:09;;;;;;;13.27;2.25;;;8.10;99.90;;;;;;5069389;28;20048;-73
2022/01/31 12:57:49;;;;;;;13.73;2.50;;;8.10;99.90;;;;;;5070265;28;20056;-73
2022/01/31 13:00:16;;;;;;;15.15;3.22;;;8.10;99.90;;;;;;5071069;28;20032;-74
2022/01/31 13:02:49;;;;;;;15.57;2.80;;;8.20;99.90;;;;;;5078594;28;20040;-72
2022/01/31 13:05:15;;;;;;;14.13;2.67;;;8.20;99.90;;;;;;5070338;28;20048;-72
2022/01/31 13:07:40;;;;;;;12.65;2.90;;;8.20;99.90;;;;;;5069901;28;20037;-72
2022/01/31 13:10:10;;;;;;;16.55;2.92;;;8.20;99.90;;;;;;5070421;28;20643;-72
2022/01/31 13:12:36;;;;;;;11.13;2.75;;;8.20;99.90;;;;;;5059655;28;20224;-73
2022/01/31 13:15:03;;;;;;;12.02;2.30;;;8.20;99.90;;;;;;5070003;28;20068;-74
2022/01/31 13:17:29;;;;;;;12.70;2.80;;;8.20;99.90;;;;;;5082364;28;20061;-73
2022/01/31 13:20:00;;;;;;;15.23;2.92;;;8.20;99.90;;;;;;5100279;28;20428;-73
2022/01/31 13:22:37;;;;;;;12.40;2.42;;;8.20;99.90;;;;;;5068873;28;20044;-72
2022/01/31 13:25:11;;;;;;;13.82;3.38;;;8.20;99.90;;;;;;5066825;28;20093;-71
2022/01/31 13:27:41;;;;;;;13.85;2.92;;;8.20;99.90;;;;;;5070084;28;20132;-71